Fisherdale, Pennsylvania
Current Conditions -  °F | °C
As of 3:53 AM on Sunday 21 Dec 2014 (Local Time) from KSEG Reporting Station
Overcast Overcast  
Wind Chill: 31°   Ceiling: 2800
Heat Index: 31°   Visibility: 10mi
Dew Point: 22°   Wind: 3mph
Humidity: 69%   Direction: 310°NW
Pressure: 30.29"   Gusts: NA
Location:  40.8606°N, 76.551°W
Report Text: KSEG 210853Z AUTO 31003KT 10SM OVC028 M01/M06 A3029 RMK AO2 SLP263 T10061056 50004
Loading
Personal Weather Stations






























Interactive Weather Map New forecast layout! Learn more

10-Day Weather Forecast

Advertisements
Track Severe Weather on mobile